sensor_id;sensor_type;location;lat;lon;timestamp;temperature;humidity
44117;DHT22;29781;49.480;8.512;2024-03-08T00:02:16;6.90;99.90
44117;DHT22;29781;49.480;8.512;2024-03-08T00:04:42;6.90;99.90
44117;DHT22;29781;49.480;8.512;2024-03-08T00:07:07;6.90;99.90
44117;DHT22;29781;49.480;8.512;2024-03-08T00:09:33;6.70;99.90
44117;DHT22;29781;49.480;8.512;2024-03-08T00:11:58;6.70;99.90
44117;DHT22;29781;49.480;8.512;2024-03-08T00:14:24;6.50;99.90
44117;DHT22;29781;49.480;8.512;2024-03-08T00:16:50;6.60;99.90
44117;DHT22;29781;49.480;8.512;2024-03-08T00:19:15;6.60;99.90
44117;DHT22;29781;49.480;8.512;2024-03-08T00:21:41;6.60;99.90
44117;DHT22;29781;49.480;8.512;2024-03-08T00:24:07;6.60;99.90
44117;DHT22;29781;49.480;8.512;2024-03-08T00:26:33;6.50;99.90
44117;DHT22;29781;49.480;8.512;2024-03-08T00:28:58;6.50;99.90
44117;DHT22;29781;49.480;8.512;2024-03-08T00:31:24;6.50;99.90
44117;DHT22;29781;49.480;8.512;2024-03-08T00:33:50;6.50;99.90
44117;DHT22;29781;49.480;8.512;2024-03-08T00:36:16;6.20;99.90
44117;DHT22;29781;49.480;8.512;2024-03-08T00:38:41;6.10;99.90
44117;DHT22;29781;49.480;8.512;2024-03-08T00:41:07;6.00;99.90
44117;DHT22;29781;49.480;8.512;2024-03-08T00:43:33;6.00;99.90
44117;DHT22;29781;49.480;8.512;2024-03-08T00:45:58;6.00;99.90
44117;DHT22;29781;49.480;8.512;2024-03-08T00:48:24;5.90;99.90
44117;DHT22;29781;49.480;8.512;2024-03-08T00:50:49;5.80;99.90
44117;DHT22;29781;49.480;8.512;2024-03-08T00:53:15;5.80;99.90
44117;DHT22;29781;49.480;8.512;2024-03-08T00:55:40;5.80;99.90
44117;DHT22;29781;49.480;8.512;2024-03-08T00:58:06;5.80;99.90
44117;DHT22;29781;49.480;8.512;2024-03-08T01:00:31;5.80;99.90
44117;DHT22;29781;49.480;8.512;2024-03-08T01:02:57;5.80;99.90
44117;DHT22;29781;49.480;8.512;2024-03-08T01:05:23;6.10;99.90
44117;DHT22;29781;49.480;8.512;2024-03-08T01:07:50;6.20;99.90
44117;DHT22;29781;49.480;8.512;2024-03-08T01:10:15;6.20;99.90
44117;DHT22;29781;49.480;8.512;2024-03-08T01:12:41;6.20;99.90
44117;DHT22;29781;49.480;8.512;2024-03-08T01:15:09;6.30;99.90
44117;DHT22;29781;49.480;8.512;2024-03-08T01:17:35;6.40;99.90
44117;DHT22;29781;49.480;8.512;2024-03-08T01:20:01;6.40;99.90
44117;DHT22;29781;49.480;8.512;2024-03-08T01:22:27;6.40;99.90
44117;DHT22;29781;49.480;8.512;2024-03-08T01:24:58;6.40;99.90
44117;DHT22;29781;49.480;8.512;2024-03-08T01:27:23;6.40;99.90
44117;DHT22;29781;49.480;8.512;2024-03-08T01:29:50;6.40;99.90
44117;DHT22;29781;49.480;8.512;2024-03-08T01:32:15;6.50;99.90
44117;DHT22;29781;49.480;8.512;2024-03-08T01:34:41;6.50;99.90
44117;DHT22;29781;49.480;8.512;2024-03-08T01:37:07;6.40;99.90
44117;DHT22;29781;49.480;8.512;2024-03-08T01:39:33;6.40;99.90
44117;DHT22;29781;49.480;8.512;2024-03-08T01:41:59;6.40;99.90
44117;DHT22;29781;49.480;8.512;2024-03-08T01:44:26;6.30;99.90
44117;DHT22;29781;49.480;8.512;2024-03-08T01:46:53;6.30;99.90
44117;DHT22;29781;49.480;8.512;2024-03-08T01:49:20;6.30;99.90
44117;DHT22;29781;49.480;8.512;2024-03-08T01:51:48;6.40;99.90
44117;DHT22;29781;49.480;8.512;2024-03-08T01:54:17;6.30;99.90
44117;DHT22;29781;49.480;8.512;2024-03-08T01:56:43;6.30;99.90
44117;DHT22;29781;49.480;8.512;2024-03-08T01:59:09;6.40;99.90
44117;DHT22;29781;49.480;8.512;2024-03-08T02:01:35;6.40;99.90
44117;DHT22;29781;49.480;8.512;2024-03-08T02:04:01;6.10;99.90
44117;DHT22;29781;49.480;8.512;2024-03-08T02:06:26;5.90;99.90
44117;DHT22;29781;49.480;8.512;2024-03-08T02:08:52;5.70;99.90
44117;DHT22;29781;49.480;8.512;2024-03-08T02:11:18;5.50;99.90
44117;DHT22;29781;49.480;8.512;2024-03-08T02:13:46;5.50;99.90
44117;DHT22;29781;49.480;8.512;2024-03-08T02:16:11;5.60;99.90
44117;DHT22;29781;49.480;8.512;2024-03-08T02:18:37;5.70;99.90
44117;DHT22;29781;49.480;8.512;2024-03-08T02:21:05;5.70;99.90
44117;DHT22;29781;49.480;8.512;2024-03-08T02:23:32;5.70;99.90
44117;DHT22;29781;49.480;8.512;2024-03-08T02:25:58;5.80;99.90
44117;DHT22;29781;49.480;8.512;2024-03-08T02:28:24;5.80;99.90
44117;DHT22;29781;49.480;8.512;2024-03-08T02:30:50;5.80;99.90
44117;DHT22;29781;49.480;8.512;2024-03-08T02:33:17;5.90;99.90
44117;DHT22;29781;49.480;8.512;2024-03-08T02:35:44;5.90;99.90
44117;DHT22;29781;49.480;8.512;2024-03-08T02:38:13;5.90;99.90
44117;DHT22;29781;49.480;8.512;2024-03-08T02:40:42;5.90;99.90
44117;DHT22;29781;49.480;8.512;2024-03-08T02:43:08;6.00;99.90
44117;DHT22;29781;49.480;8.512;2024-03-08T02:45:34;6.00;99.90
44117;DHT22;29781;49.480;8.512;2024-03-08T02:48:00;6.00;99.90
44117;DHT22;29781;49.480;8.512;2024-03-08T02:50:26;5.90;99.90
44117;DHT22;29781;49.480;8.512;2024-03-08T02:52:51;6.00;99.90
44117;DHT22;29781;49.480;8.512;2024-03-08T02:55:17;5.90;99.90
44117;DHT22;29781;49.480;8.512;2024-03-08T02:57:42;5.90;99.90
44117;DHT22;29781;49.480;8.512;2024-03-08T03:00:13;5.90;99.90
44117;DHT22;29781;49.480;8.512;2024-03-08T03:02:38;5.90;99.90
44117;DHT22;29781;49.480;8.512;2024-03-08T03:05:05;5.90;99.90
44117;DHT22;29781;49.480;8.512;2024-03-08T03:07:34;5.80;99.90
44117;DHT22;29781;49.480;8.512;2024-03-08T03:10:00;5.80;99.90
44117;DHT22;29781;49.480;8.512;2024-03-08T03:12:27;5.70;99.90
44117;DHT22;29781;49.480;8.512;2024-03-08T03:14:53;5.80;99.90
44117;DHT22;29781;49.480;8.512;2024-03-08T03:17:18;5.80;99.90
44117;DHT22;29781;49.480;8.512;2024-03-08T03:19:45;5.80;99.90
44117;DHT22;29781;49.480;8.512;2024-03-08T03:22:12;5.70;99.90
44117;DHT22;29781;49.480;8.512;2024-03-08T03:24:38;5.60;99.90
44117;DHT22;29781;49.480;8.512;2024-03-08T03:27:04;5.50;99.90
44117;DHT22;29781;49.480;8.512;2024-03-08T03:29:39;5.40;99.90
44117;DHT22;29781;49.480;8.512;2024-03-08T03:32:05;5.50;99.90
44117;DHT22;29781;49.480;8.512;2024-03-08T03:34:33;5.60;99.90
44117;DHT22;29781;49.480;8.512;2024-03-08T03:37:01;5.60;99.90
44117;DHT22;29781;49.480;8.512;2024-03-08T03:39:28;5.50;99.90
44117;DHT22;29781;49.480;8.512;2024-03-08T03:41:58;5.40;99.90
44117;DHT22;29781;49.480;8.512;2024-03-08T03:44:24;5.40;99.90
44117;DHT22;29781;49.480;8.512;2024-03-08T03:46:49;5.50;99.90
44117;DHT22;29781;49.480;8.512;2024-03-08T03:49:18;5.30;99.90
44117;DHT22;29781;49.480;8.512;2024-03-08T03:51:43;5.40;99.90
44117;DHT22;29781;49.480;8.512;2024-03-08T03:54:10;5.40;99.90
44117;DHT22;29781;49.480;8.512;2024-03-08T03:56:35;5.40;99.90
44117;DHT22;29781;49.480;8.512;2024-03-08T03:59:01;5.40;99.90
44117;DHT22;29781;49.480;8.512;2024-03-08T04:01:26;5.50;99.90
44117;DHT22;29781;49.480;8.512;2024-03-08T04:03:52;5.50;99.90
44117;DHT22;29781;49.480;8.512;2024-03-08T04:06:17;5.30;99.90
44117;DHT22;29781;49.480;8.512;2024-03-08T04:08:43;5.30;99.90
44117;DHT22;29781;49.480;8.512;2024-03-08T04:11:08;5.20;99.90
44117;DHT22;29781;49.480;8.512;2024-03-08T04:13:34;5.20;99.90
44117;DHT22;29781;49.480;8.512;2024-03-08T04:16:01;5.30;99.90
44117;DHT22;29781;49.480;8.512;2024-03-08T04:18:27;5.20;99.90
44117;DHT22;29781;49.480;8.512;2024-03-08T04:20:53;5.20;99.90
44117;DHT22;29781;49.480;8.512;2024-03-08T04:23:19;5.30;99.90
44117;DHT22;29781;49.480;8.512;2024-03-08T04:25:44;5.30;99.90
44117;DHT22;29781;49.480;8.512;2024-03-08T04:28:10;5.40;99.90
44117;DHT22;29781;49.480;8.512;2024-03-08T04:30:37;5.30;99.90
44117;DHT22;29781;49.480;8.512;2024-03-08T04:33:03;5.20;99.90
44117;DHT22;29781;49.480;8.512;2024-03-08T04:35:29;5.30;99.90
44117;DHT22;29781;49.480;8.512;2024-03-08T04:37:55;5.20;99.90
44117;DHT22;29781;49.480;8.512;2024-03-08T04:40:23;5.20;99.90
44117;DHT22;29781;49.480;8.512;2024-03-08T04:42:48;5.30;99.90
44117;DHT22;29781;49.480;8.512;2024-03-08T04:45:17;5.20;99.90
44117;DHT22;29781;49.480;8.512;2024-03-08T04:47:42;5.10;99.90
44117;DHT22;29781;49.480;8.512;2024-03-08T04:50:08;5.20;99.90
44117;DHT22;29781;49.480;8.512;2024-03-08T04:52:34;5.10;99.90
44117;DHT22;29781;49.480;8.512;2024-03-08T04:55:01;5.10;99.90
44117;DHT22;29781;49.480;8.512;2024-03-08T04:57:29;5.10;99.90
44117;DHT22;29781;49.480;8.512;2024-03-08T04:59:55;5.00;99.90
44117;DHT22;29781;49.480;8.512;2024-03-08T05:02:20;5.20;99.90
44117;DHT22;29781;49.480;8.512;2024-03-08T05:04:48;5.20;99.90
44117;DHT22;29781;49.480;8.512;2024-03-08T05:07:13;5.20;99.90
44117;DHT22;29781;49.480;8.512;2024-03-08T05:09:39;5.20;99.90
44117;DHT22;29781;49.480;8.512;2024-03-08T05:12:06;5.00;99.90
44117;DHT22;29781;49.480;8.512;2024-03-08T05:14:32;4.90;99.90
44117;DHT22;29781;49.480;8.512;2024-03-08T05:16:57;5.10;99.90
44117;DHT22;29781;49.480;8.512;2024-03-08T05:19:23;5.00;99.90
44117;DHT22;29781;49.480;8.512;2024-03-08T05:21:49;5.10;99.90
44117;DHT22;29781;49.480;8.512;2024-03-08T05:24:15;5.20;99.90
44117;DHT22;29781;49.480;8.512;2024-03-08T05:26:41;5.20;99.90
44117;DHT22;29781;49.480;8.512;2024-03-08T05:29:08;5.10;99.90
44117;DHT22;29781;49.480;8.512;2024-03-08T05:31:48;5.10;99.90
44117;DHT22;29781;49.480;8.512;2024-03-08T05:34:14;5.00;99.90
44117;DHT22;29781;49.480;8.512;2024-03-08T05:36:41;4.90;99.90
44117;DHT22;29781;49.480;8.512;2024-03-08T05:39:08;5.00;99.90
44117;DHT22;29781;49.480;8.512;2024-03-08T05:41:36;5.00;99.90
44117;DHT22;29781;49.480;8.512;2024-03-08T05:44:02;5.00;99.90
44117;DHT22;29781;49.480;8.512;2024-03-08T05:46:28;5.10;99.90
44117;DHT22;29781;49.480;8.512;2024-03-08T05:48:53;5.00;99.90
44117;DHT22;29781;49.480;8.512;2024-03-08T05:51:19;5.00;99.90
44117;DHT22;29781;49.480;8.512;2024-03-08T05:53:47;5.00;99.90
44117;DHT22;29781;49.480;8.512;2024-03-08T05:56:12;5.00;99.90
44117;DHT22;29781;49.480;8.512;2024-03-08T05:58:38;4.90;99.90
44117;DHT22;29781;49.480;8.512;2024-03-08T06:01:03;4.90;99.90
44117;DHT22;29781;49.480;8.512;2024-03-08T06:03:33;4.80;99.90
44117;DHT22;29781;49.480;8.512;2024-03-08T06:05:59;4.90;99.90
44117;DHT22;29781;49.480;8.512;2024-03-08T06:08:24;5.00;99.90
44117;DHT22;29781;49.480;8.512;2024-03-08T06:10:55;5.00;99.90
44117;DHT22;29781;49.480;8.512;2024-03-08T06:13:21;4.90;99.90
44117;DHT22;29781;49.480;8.512;2024-03-08T06:15:46;5.00;99.90
44117;DHT22;29781;49.480;8.512;2024-03-08T06:18:12;5.00;99.90
44117;DHT22;29781;49.480;8.512;2024-03-08T06:20:37;5.00;99.90
44117;DHT22;29781;49.480;8.512;2024-03-08T06:23:03;5.00;99.90
44117;DHT22;29781;49.480;8.512;2024-03-08T06:25:29;5.00;99.90
44117;DHT22;29781;49.480;8.512;2024-03-08T06:27:54;5.00;99.90
44117;DHT22;29781;49.480;8.512;2024-03-08T06:30:20;5.10;99.90
44117;DHT22;29781;49.480;8.512;2024-03-08T06:32:46;5.00;99.90
44117;DHT22;29781;49.480;8.512;2024-03-08T06:35:12;4.90;99.90
44117;DHT22;29781;49.480;8.512;2024-03-08T06:37:37;4.90;99.90
44117;DHT22;29781;49.480;8.512;2024-03-08T06:40:04;5.00;99.90
44117;DHT22;29781;49.480;8.512;2024-03-08T06:42:30;5.10;99.90
44117;DHT22;29781;49.480;8.512;2024-03-08T06:45:00;5.20;99.90
44117;DHT22;29781;49.480;8.512;2024-03-08T06:47:30;5.20;99.90
44117;DHT22;29781;49.480;8.512;2024-03-08T06:49:56;5.20;99.90
44117;DHT22;29781;49.480;8.512;2024-03-08T06:52:21;5.20;99.90
44117;DHT22;29781;49.480;8.512;2024-03-08T06:54:48;5.30;99.90
44117;DHT22;29781;49.480;8.512;2024-03-08T06:57:13;5.40;99.90
44117;DHT22;29781;49.480;8.512;2024-03-08T06:59:39;5.50;99.90
44117;DHT22;29781;49.480;8.512;2024-03-08T07:02:05;5.60;99.90
44117;DHT22;29781;49.480;8.512;2024-03-08T07:04:34;5.60;99.90
44117;DHT22;29781;49.480;8.512;2024-03-08T07:07:03;5.70;99.90
44117;DHT22;29781;49.480;8.512;2024-03-08T07:09:29;5.80;99.90
44117;DHT22;29781;49.480;8.512;2024-03-08T07:11:55;6.00;99.90
44117;DHT22;29781;49.480;8.512;2024-03-08T07:14:24;6.00;99.90
44117;DHT22;29781;49.480;8.512;2024-03-08T07:16:50;6.00;99.90
44117;DHT22;29781;49.480;8.512;2024-03-08T07:19:16;6.10;99.90
44117;DHT22;29781;49.480;8.512;2024-03-08T07:21:43;6.00;99.90
44117;DHT22;29781;49.480;8.512;2024-03-08T07:24:09;6.10;99.90
44117;DHT22;29781;49.480;8.512;2024-03-08T07:26:53;6.10;99.90
44117;DHT22;29781;49.480;8.512;2024-03-08T07:29:18;6.10;99.90
44117;DHT22;29781;49.480;8.512;2024-03-08T07:31:44;6.20;99.90
44117;DHT22;29781;49.480;8.512;2024-03-08T07:34:21;6.20;99.90
44117;DHT22;29781;49.480;8.512;2024-03-08T07:36:47;6.10;99.90
44117;DHT22;29781;49.480;8.512;2024-03-08T07:39:13;6.20;99.90
44117;DHT22;29781;49.480;8.512;2024-03-08T07:41:39;6.20;99.90
44117;DHT22;29781;49.480;8.512;2024-03-08T07:44:07;6.30;99.90
44117;DHT22;29781;49.480;8.512;2024-03-08T07:46:33;6.40;99.90
44117;DHT22;29781;49.480;8.512;2024-03-08T07:49:02;6.20;99.90
44117;DHT22;29781;49.480;8.512;2024-03-08T07:51:28;6.20;99.90
44117;DHT22;29781;49.480;8.512;2024-03-08T07:53:54;6.20;99.90
44117;DHT22;29781;49.480;8.512;2024-03-08T07:56:20;6.10;99.90
44117;DHT22;29781;49.480;8.512;2024-03-08T07:58:47;6.00;99.90
44117;DHT22;29781;49.480;8.512;2024-03-08T08:01:19;6.30;99.90
44117;DHT22;29781;49.480;8.512;2024-03-08T08:03:45;6.40;99.90
44117;DHT22;29781;49.480;8.512;2024-03-08T08:06:11;6.40;99.90
44117;DHT22;29781;49.480;8.512;2024-03-08T08:08:41;6.60;99.90
44117;DHT22;29781;49.480;8.512;2024-03-08T08:11:07;6.70;99.90
44117;DHT22;29781;49.480;8.512;2024-03-08T08:13:35;6.80;99.90
44117;DHT22;29781;49.480;8.512;2024-03-08T08:16:02;6.90;99.90
44117;DHT22;29781;49.480;8.512;2024-03-08T08:18:27;6.90;99.90
44117;DHT22;29781;49.480;8.512;2024-03-08T08:20:55;7.10;99.90
44117;DHT22;29781;49.480;8.512;2024-03-08T08:23:20;7.30;99.90
44117;DHT22;29781;49.480;8.512;2024-03-08T08:25:46;7.50;99.90
44117;DHT22;29781;49.480;8.512;2024-03-08T08:28:17;7.80;99.90
44117;DHT22;29781;49.480;8.512;2024-03-08T08:30:44;7.80;99.90
44117;DHT22;29781;49.480;8.512;2024-03-08T08:33:10;8.10;99.90
44117;DHT22;29781;49.480;8.512;2024-03-08T08:35:36;8.30;99.90
44117;DHT22;29781;49.480;8.512;2024-03-08T08:38:03;8.30;99.90
44117;DHT22;29781;49.480;8.512;2024-03-08T08:40:29;8.10;99.90
44117;DHT22;29781;49.480;8.512;2024-03-08T08:42:56;8.20;99.90
44117;DHT22;29781;49.480;8.512;2024-03-08T08:45:23;8.40;99.90
44117;DHT22;29781;49.480;8.512;2024-03-08T08:47:48;8.40;99.90
44117;DHT22;29781;49.480;8.512;2024-03-08T08:50:15;8.20;99.90
44117;DHT22;29781;49.480;8.512;2024-03-08T08:52:41;8.20;99.90
44117;DHT22;29781;49.480;8.512;2024-03-08T08:55:09;8.30;99.90
44117;DHT22;29781;49.480;8.512;2024-03-08T08:57:42;8.30;99.90
44117;DHT22;29781;49.480;8.512;2024-03-08T09:00:09;8.10;99.90
44117;DHT22;29781;49.480;8.512;2024-03-08T09:02:40;8.30;99.90
44117;DHT22;29781;49.480;8.512;2024-03-08T09:05:06;8.40;99.90
44117;DHT22;29781;49.480;8.512;2024-03-08T09:07:33;8.20;99.90
44117;DHT22;29781;49.480;8.512;2024-03-08T09:10:02;7.90;99.90
44117;DHT22;29781;49.480;8.512;2024-03-08T09:12:27;7.80;99.90
44117;DHT22;29781;49.480;8.512;2024-03-08T09:14:53;8.20;99.90
44117;DHT22;29781;49.480;8.512;2024-03-08T09:17:19;8.30;99.90
44117;DHT22;29781;49.480;8.512;2024-03-08T09:19:49;8.10;99.90
44117;DHT22;29781;49.480;8.512;2024-03-08T09:22:15;8.00;99.90
44117;DHT22;29781;49.480;8.512;2024-03-08T09:24:40;7.90;99.90
44117;DHT22;29781;49.480;8.512;2024-03-08T09:27:07;8.00;99.90
44117;DHT22;29781;49.480;8.512;2024-03-08T09:29:34;7.90;99.90
44117;DHT22;29781;49.480;8.512;2024-03-08T09:32:00;8.00;99.90
44117;DHT22;29781;49.480;8.512;2024-03-08T09:34:26;8.40;99.90
44117;DHT22;29781;49.480;8.512;2024-03-08T09:36:52;8.40;99.90
44117;DHT22;29781;49.480;8.512;2024-03-08T09:39:18;8.50;99.90
44117;DHT22;29781;49.480;8.512;2024-03-08T09:41:46;8.80;99.90
44117;DHT22;29781;49.480;8.512;2024-03-08T09:44:15;9.00;99.90
44117;DHT22;29781;49.480;8.512;2024-03-08T09:46:41;9.10;99.90
44117;DHT22;29781;49.480;8.512;2024-03-08T09:49:07;9.00;99.90
44117;DHT22;29781;49.480;8.512;2024-03-08T09:51:34;9.20;99.90
44117;DHT22;29781;49.480;8.512;2024-03-08T09:54:02;9.40;99.90
44117;DHT22;29781;49.480;8.512;2024-03-08T09:56:35;9.30;99.90
44117;DHT22;29781;49.480;8.512;2024-03-08T09:59:01;9.30;99.90
44117;DHT22;29781;49.480;8.512;2024-03-08T10:01:50;9.00;99.90
44117;DHT22;29781;49.480;8.512;2024-03-08T10:04:17;8.60;99.90
44117;DHT22;29781;49.480;8.512;2024-03-08T10:06:45;8.70;99.90
44117;DHT22;29781;49.480;8.512;2024-03-08T10:09:12;9.10;99.90
44117;DHT22;29781;49.480;8.512;2024-03-08T10:11:40;9.20;99.90
44117;DHT22;29781;49.480;8.512;2024-03-08T10:14:05;9.50;99.90
44117;DHT22;29781;49.480;8.512;2024-03-08T10:16:32;9.80;99.90
44117;DHT22;29781;49.480;8.512;2024-03-08T10:18:59;10.30;99.90
44117;DHT22;29781;49.480;8.512;2024-03-08T10:21:26;10.30;99.90
44117;DHT22;29781;49.480;8.512;2024-03-08T10:23:51;10.40;99.90
44117;DHT22;29781;49.480;8.512;2024-03-08T10:26:17;10.20;99.90
44117;DHT22;29781;49.480;8.512;2024-03-08T10:28:45;9.50;99.90
44117;DHT22;29781;49.480;8.512;2024-03-08T10:31:11;9.40;99.90
44117;DHT22;29781;49.480;8.512;2024-03-08T10:33:37;10.00;99.90
44117;DHT22;29781;49.480;8.512;2024-03-08T10:36:07;10.50;99.90
44117;DHT22;29781;49.480;8.512;2024-03-08T10:38:37;10.00;99.90
44117;DHT22;29781;49.480;8.512;2024-03-08T10:41:06;10.30;99.90
44117;DHT22;29781;49.480;8.512;2024-03-08T10:43:39;10.20;99.90
44117;DHT22;29781;49.480;8.512;2024-03-08T10:46:26;10.30;99.90
44117;DHT22;29781;49.480;8.512;2024-03-08T10:48:55;10.50;99.90
44117;DHT22;29781;49.480;8.512;2024-03-08T10:51:24;10.60;99.90
44117;DHT22;29781;49.480;8.512;2024-03-08T10:53:52;10.80;99.90
44117;DHT22;29781;49.480;8.512;2024-03-08T10:56:17;10.90;99.90
44117;DHT22;29781;49.480;8.512;2024-03-08T10:58:43;10.70;99.90
44117;DHT22;29781;49.480;8.512;2024-03-08T11:01:10;10.90;99.90
44117;DHT22;29781;49.480;8.512;2024-03-08T11:08:48;11.70;99.90
44117;DHT22;29781;49.480;8.512;2024-03-08T11:13:53;12.30;99.90
44117;DHT22;29781;49.480;8.512;2024-03-08T11:18:58;13.50;99.90
44117;DHT22;29781;49.480;8.512;2024-03-08T11:21:30;12.10;99.90
44117;DHT22;29781;49.480;8.512;2024-03-08T11:24:11;11.10;99.90
44117;DHT22;29781;49.480;8.512;2024-03-08T11:26:39;10.50;99.90
44117;DHT22;29781;49.480;8.512;2024-03-08T11:32:15;11.10;99.90
44117;DHT22;29781;49.480;8.512;2024-03-08T11:34:42;11.50;99.90
44117;DHT22;29781;49.480;8.512;2024-03-08T11:37:16;11.60;99.90
44117;DHT22;29781;49.480;8.512;2024-03-08T11:42:16;10.40;99.90
44117;DHT22;29781;49.480;8.512;2024-03-08T11:44:46;10.30;99.90
44117;DHT22;29781;49.480;8.512;2024-03-08T11:47:13;10.40;99.90
44117;DHT22;29781;49.480;8.512;2024-03-08T11:49:40;10.70;99.90
44117;DHT22;29781;49.480;8.512;2024-03-08T11:52:11;10.80;99.90
44117;DHT22;29781;49.480;8.512;2024-03-08T11:54:38;10.90;99.90
44117;DHT22;29781;49.480;8.512;2024-03-08T11:57:04;11.80;99.90
44117;DHT22;29781;49.480;8.512;2024-03-08T11:59:31;12.00;99.90
44117;DHT22;29781;49.480;8.512;2024-03-08T12:02:06;11.80;99.90
44117;DHT22;29781;49.480;8.512;2024-03-08T12:04:35;11.70;99.90
44117;DHT22;29781;49.480;8.512;2024-03-08T12:07:02;11.70;99.90
44117;DHT22;29781;49.480;8.512;2024-03-08T12:09:30;12.30;99.90
44117;DHT22;29781;49.480;8.512;2024-03-08T12:11:58;12.90;99.90
44117;DHT22;29781;49.480;8.512;2024-03-08T12:14:24;13.30;99.90
44117;DHT22;29781;49.480;8.512;2024-03-08T12:16:51;13.70;99.90
44117;DHT22;29781;49.480;8.512;2024-03-08T12:19:16;13.40;99.90
44117;DHT22;29781;49.480;8.512;2024-03-08T12:21:42;13.70;99.90
44117;DHT22;29781;49.480;8.512;2024-03-08T12:24:18;14.30;99.90
44117;DHT22;29781;49.480;8.512;2024-03-08T12:26:47;14.70;99.90
44117;DHT22;29781;49.480;8.512;2024-03-08T12:29:27;14.90;99.90
44117;DHT22;29781;49.480;8.512;2024-03-08T12:31:55;14.80;99.90
44117;DHT22;29781;49.480;8.512;2024-03-08T12:34:23;15.10;99.90
44117;DHT22;29781;49.480;8.512;2024-03-08T12:36:51;14.80;99.90
44117;DHT22;29781;49.480;8.512;2024-03-08T12:39:20;14.20;99.90
44117;DHT22;29781;49.480;8.512;2024-03-08T12:41:53;14.40;99.90
44117;DHT22;29781;49.480;8.512;2024-03-08T12:44:19;14.10;99.90
44117;DHT22;29781;49.480;8.512;2024-03-08T12:46:47;14.00;99.90
44117;DHT22;29781;49.480;8.512;2024-03-08T12:49:13;13.70;99.90
44117;DHT22;29781;49.480;8.512;2024-03-08T12:51:43;13.00;99.90
44117;DHT22;29781;49.480;8.512;2024-03-08T12:54:09;12.50;99.90
44117;DHT22;29781;49.480;8.512;2024-03-08T12:56:35;12.30;99.90
44117;DHT22;29781;49.480;8.512;2024-03-08T12:59:03;11.90;99.90
44117;DHT22;29781;49.480;8.512;2024-03-08T13:01:30;11.80;99.90
44117;DHT22;29781;49.480;8.512;2024-03-08T13:03:58;11.90;99.90
44117;DHT22;29781;49.480;8.512;2024-03-08T13:06:28;11.90;99.90
44117;DHT22;29781;49.480;8.512;2024-03-08T13:08:54;11.90;99.90
44117;DHT22;29781;49.480;8.512;2024-03-08T13:11:23;11.70;99.90
44117;DHT22;29781;49.480;8.512;2024-03-08T13:13:49;11.30;99.90
44117;DHT22;29781;49.480;8.512;2024-03-08T13:16:15;11.50;99.90
44117;DHT22;29781;49.480;8.512;2024-03-08T13:18:41;11.50;99.90
44117;DHT22;29781;49.480;8.512;2024-03-08T13:21:10;11.30;99.90
44117;DHT22;29781;49.480;8.512;2024-03-08T13:23:38;10.80;99.90
44117;DHT22;29781;49.480;8.512;2024-03-08T13:26:10;10.40;99.90
44117;DHT22;29781;49.480;8.512;2024-03-08T13:28:46;10.50;99.90
44117;DHT22;29781;49.480;8.512;2024-03-08T13:31:14;10.80;99.90
44117;DHT22;29781;49.480;8.512;2024-03-08T13:33:40;10.90;99.90
44117;DHT22;29781;49.480;8.512;2024-03-08T13:36:07;11.30;99.90
44117;DHT22;29781;49.480;8.512;2024-03-08T13:38:43;11.20;99.90
44117;DHT22;29781;49.480;8.512;2024-03-08T13:41:13;11.30;99.90
44117;DHT22;29781;49.480;8.512;2024-03-08T13:43:41;11.30;99.90
44117;DHT22;29781;49.480;8.512;2024-03-08T13:46:06;11.30;99.90
44117;DHT22;29781;49.480;8.512;2024-03-08T13:48:33;11.30;99.90
44117;DHT22;29781;49.480;8.512;2024-03-08T13:50:58;11.40;99.90
44117;DHT22;29781;49.480;8.512;2024-03-08T13:53:25;10.30;99.90
44117;DHT22;29781;49.480;8.512;2024-03-08T13:55:51;11.10;99.90
44117;DHT22;29781;49.480;8.512;2024-03-08T13:58:16;11.00;99.90
44117;DHT22;29781;49.480;8.512;2024-03-08T14:00:42;11.10;99.90
44117;DHT22;29781;49.480;8.512;2024-03-08T14:03:10;11.30;99.90
44117;DHT22;29781;49.480;8.512;2024-03-08T14:05:39;11.40;99.90
44117;DHT22;29781;49.480;8.512;2024-03-08T14:08:08;11.40;99.90
44117;DHT22;29781;49.480;8.512;2024-03-08T14:10:35;11.40;99.90
44117;DHT22;29781;49.480;8.512;2024-03-08T14:13:03;11.50;99.90
44117;DHT22;29781;49.480;8.512;2024-03-08T14:15:33;11.70;99.90
44117;DHT22;29781;49.480;8.512;2024-03-08T14:18:00;11.50;99.90
44117;DHT22;29781;49.480;8.512;2024-03-08T14:20:26;11.40;99.90
44117;DHT22;29781;49.480;8.512;2024-03-08T14:22:53;11.50;99.90
44117;DHT22;29781;49.480;8.512;2024-03-08T14:25:20;11.60;99.90
44117;DHT22;29781;49.480;8.512;2024-03-08T14:27:46;11.60;99.90
44117;DHT22;29781;49.480;8.512;2024-03-08T14:30:13;11.60;99.90
44117;DHT22;29781;49.480;8.512;2024-03-08T14:32:38;11.90;99.90
44117;DHT22;29781;49.480;8.512;2024-03-08T14:35:05;11.90;99.90
44117;DHT22;29781;49.480;8.512;2024-03-08T14:37:31;11.90;99.90
44117;DHT22;29781;49.480;8.512;2024-03-08T14:39:56;11.80;99.90
44117;DHT22;29781;49.480;8.512;2024-03-08T14:42:22;11.80;99.90
44117;DHT22;29781;49.480;8.512;2024-03-08T14:44:51;11.70;99.90
44117;DHT22;29781;49.480;8.512;2024-03-08T14:47:17;11.90;99.90
44117;DHT22;29781;49.480;8.512;2024-03-08T14:49:43;12.00;99.90
44117;DHT22;29781;49.480;8.512;2024-03-08T14:52:08;12.10;99.90
44117;DHT22;29781;49.480;8.512;2024-03-08T14:54:53;12.00;99.90
44117;DHT22;29781;49.480;8.512;2024-03-08T14:57:19;11.90;99.90
44117;DHT22;29781;49.480;8.512;2024-03-08T14:59:44;12.00;99.90
44117;DHT22;29781;49.480;8.512;2024-03-08T15:02:10;12.00;99.90
44117;DHT22;29781;49.480;8.512;2024-03-08T15:04:36;12.00;99.90
44117;DHT22;29781;49.480;8.512;2024-03-08T15:07:02;11.90;99.90
44117;DHT22;29781;49.480;8.512;2024-03-08T15:09:31;12.00;99.90
44117;DHT22;29781;49.480;8.512;2024-03-08T15:12:06;12.00;99.90
44117;DHT22;29781;49.480;8.512;2024-03-08T15:14:31;12.00;99.90
44117;DHT22;29781;49.480;8.512;2024-03-08T15:16:58;12.00;99.90
44117;DHT22;29781;49.480;8.512;2024-03-08T15:19:24;12.00;99.90
44117;DHT22;29781;49.480;8.512;2024-03-08T15:21:50;12.00;99.90
44117;DHT22;29781;49.480;8.512;2024-03-08T15:24:20;12.00;99.90
44117;DHT22;29781;49.480;8.512;2024-03-08T15:26:47;12.00;99.90
44117;DHT22;29781;49.480;8.512;2024-03-08T15:29:16;12.00;99.90
44117;DHT22;29781;49.480;8.512;2024-03-08T15:31:41;12.00;99.90
44117;DHT22;29781;49.480;8.512;2024-03-08T15:34:08;12.10;99.90
44117;DHT22;29781;49.480;8.512;2024-03-08T15:36:36;12.10;99.90
44117;DHT22;29781;49.480;8.512;2024-03-08T15:39:02;12.10;99.90
44117;DHT22;29781;49.480;8.512;2024-03-08T15:41:28;12.10;99.90
44117;DHT22;29781;49.480;8.512;2024-03-08T15:43:55;12.00;99.90
44117;DHT22;29781;49.480;8.512;2024-03-08T15:46:24;12.10;99.90
44117;DHT22;29781;49.480;8.512;2024-03-08T15:48:50;12.10;99.90
44117;DHT22;29781;49.480;8.512;2024-03-08T15:51:16;12.10;99.90
44117;DHT22;29781;49.480;8.512;2024-03-08T15:53:44;12.10;99.90
44117;DHT22;29781;49.480;8.512;2024-03-08T15:56:18;12.10;99.90